createdAt,value
2023-01-02T00:00:31.503Z,4.15
2023-01-02T00:04:43.207Z,4.32
2023-01-02T00:08:54.792Z,4.30
2023-01-02T00:13:06.366Z,4.43
2023-01-02T00:17:19.020Z,3.92
2023-01-02T00:21:30.677Z,3.97
2023-01-02T00:25:42.328Z,4.18
2023-01-02T00:29:53.936Z,3.58
2023-01-02T00:34:05.562Z,3.88
2023-01-02T00:38:18.147Z,3.88
2023-01-02T00:42:29.923Z,3.72
2023-01-02T00:46:41.561Z,3.47
2023-01-02T00:50:53.323Z,3.65
2023-01-02T00:55:05.341Z,4.13
2023-01-02T00:59:16.996Z,3.38
2023-01-02T01:03:28.859Z,3.88
2023-01-02T01:07:40.581Z,3.33
2023-01-02T01:11:52.325Z,3.55
2023-01-02T01:16:15.267Z,3.42
2023-01-02T01:20:28.166Z,3.60
2023-01-02T01:24:39.836Z,3.38
2023-01-02T01:28:53.434Z,3.47
2023-01-02T01:33:05.038Z,3.60
2023-01-02T01:37:16.719Z,3.28
2023-01-02T01:41:28.706Z,3.33
2023-01-02T01:45:43.911Z,3.90
2023-01-02T01:50:05.915Z,3.70
2023-01-02T01:54:22.422Z,3.13
2023-01-02T01:58:39.325Z,3.65
2023-01-02T02:02:56.805Z,3.20
2023-01-02T02:07:08.490Z,3.67
2023-01-02T02:11:20.693Z,3.40
2023-01-02T02:16:07.364Z,3.30
2023-01-02T02:20:30.526Z,3.35
2023-01-02T02:25:05.753Z,2.95
2023-01-02T02:29:36.099Z,2.70
2023-01-02T02:33:58.357Z,3.25
2023-01-02T02:39:02.501Z,2.83
2023-01-02T02:43:36.070Z,2.90
2023-01-02T02:48:16.296Z,2.83
2023-01-02T02:52:34.285Z,3.10
2023-01-02T02:56:48.291Z,3.33
2023-01-02T03:01:06.091Z,3.10
2023-01-02T03:05:27.737Z,2.78
2023-01-02T03:10:05.325Z,2.78
2023-01-02T03:14:55.481Z,2.78
2023-01-02T03:19:15.559Z,3.25
2023-01-02T03:23:31.154Z,3.17
2023-01-02T03:27:46.951Z,3.28
2023-01-02T03:32:04.290Z,2.92
2023-01-02T03:36:26.575Z,3.35
2023-01-02T03:40:44.622Z,3.25
2023-01-02T03:45:03.493Z,3.20
2023-01-02T03:49:22.472Z,2.70
2023-01-02T03:53:36.709Z,3.22
2023-01-02T03:58:13.455Z,3.13
2023-01-02T04:02:50.482Z,3.35
2023-01-02T04:07:07.251Z,2.78
2023-01-02T04:11:21.533Z,2.22
2023-01-02T04:15:36.392Z,2.83
2023-01-02T04:19:54.197Z,2.97
2023-01-02T04:24:17.437Z,2.83
2023-01-02T04:28:32.151Z,2.88
2023-01-02T04:32:45.605Z,2.78
2023-01-02T04:36:57.291Z,2.65
2023-01-02T04:41:10.129Z,2.45
2023-01-02T04:45:21.824Z,2.65
2023-01-02T04:49:33.468Z,2.90
2023-01-02T04:53:48.495Z,2.40
2023-01-02T04:58:00.165Z,2.50
2023-01-02T05:02:11.880Z,2.60
2023-01-02T05:06:23.575Z,3.28
2023-01-02T05:10:35.413Z,2.60
2023-01-02T05:14:47.033Z,2.97
2023-01-02T05:18:58.683Z,2.63
2023-01-02T05:23:30.127Z,2.38
2023-01-02T05:27:41.805Z,2.92
2023-01-02T05:31:53.502Z,2.63
2023-01-02T05:36:07.140Z,2.25
2023-01-02T05:40:18.831Z,2.70
2023-01-02T05:44:31.394Z,3.17
2023-01-02T05:48:44.000Z,2.83
2023-01-02T05:52:56.513Z,2.90
2023-01-02T05:57:08.330Z,2.45
2023-01-02T06:01:22.691Z,2.58
2023-01-02T06:05:35.139Z,2.50
2023-01-02T06:09:47.718Z,2.90
2023-01-02T06:13:59.499Z,3.10
2023-01-02T06:18:11.165Z,2.80
2023-01-02T06:22:22.833Z,2.55
2023-01-02T06:26:35.555Z,2.60
2023-01-02T06:30:47.349Z,2.70
2023-01-02T06:34:58.988Z,2.65
2023-01-02T06:39:10.673Z,2.72
2023-01-02T06:43:22.976Z,2.55
2023-01-02T06:47:34.684Z,2.22
2023-01-02T06:51:46.414Z,1.15
2023-01-02T06:55:58.977Z,0.70
2023-01-02T07:00:11.341Z,0.70
2023-01-02T07:04:23.011Z,0.40
2023-01-02T07:08:34.775Z,0.38
2023-01-02T07:12:46.417Z,0.70
2023-01-02T07:16:58.056Z,0.60
2023-01-02T07:21:11.075Z,0.85
2023-01-02T07:25:22.760Z,0.95
2023-01-02T07:29:34.431Z,1.20
2023-01-02T07:33:46.405Z,1.50
2023-01-02T07:37:58.120Z,1.30
2023-01-02T07:42:09.751Z,1.38
2023-01-02T07:46:21.568Z,1.55
2023-01-02T07:50:33.600Z,2.05
2023-01-02T07:54:45.206Z,2.00
2023-01-02T07:58:57.059Z,2.70
2023-01-02T08:03:08.703Z,3.22
2023-01-02T08:07:21.940Z,2.97
2023-01-02T08:11:33.722Z,3.83
2023-01-02T08:15:46.393Z,4.07
2023-01-02T08:20:01.685Z,3.97
2023-01-02T08:24:18.604Z,4.85
2023-01-02T08:28:31.054Z,5.78
2023-01-02T08:32:43.234Z,5.70
2023-01-02T08:36:54.886Z,6.43
2023-01-02T08:41:07.105Z,6.93
2023-01-02T08:45:18.834Z,6.30
2023-01-02T08:49:30.546Z,6.00
2023-01-02T08:53:42.176Z,5.07
2023-01-02T08:57:53.967Z,5.00
2023-01-02T09:02:05.701Z,3.75
2023-01-02T09:06:21.745Z,4.00
2023-01-02T09:10:34.080Z,3.10
2023-01-02T09:14:45.837Z,2.67
2023-01-02T09:18:59.394Z,3.20
2023-01-02T09:23:11.051Z,2.70
2023-01-02T09:27:22.590Z,3.42
2023-01-02T09:31:34.795Z,4.68
2023-01-02T09:35:46.554Z,3.70
2023-01-02T09:39:58.201Z,3.35
2023-01-02T09:44:26.560Z,3.70
2023-01-02T09:48:38.160Z,4.20
2023-01-02T09:52:55.706Z,4.00
2023-01-02T09:57:22.058Z,4.35
2023-01-02T10:01:54.978Z,3.40
2023-01-02T10:06:12.114Z,3.00
2023-01-02T10:10:34.841Z,2.53
2023-01-02T10:14:58.313Z,2.00
2023-01-02T10:19:18.734Z,2.40
2023-01-02T10:23:40.970Z,2.20
2023-01-02T10:28:01.540Z,2.00
2023-01-02T10:32:17.461Z,2.20
2023-01-02T10:36:32.546Z,1.80
2023-01-02T10:40:47.505Z,2.08
2023-01-02T10:44:59.421Z,1.83
2023-01-02T10:49:12.568Z,1.60
2023-01-02T10:53:37.108Z,1.70
2023-01-02T10:57:51.628Z,1.70
2023-01-02T11:02:03.291Z,1.80
2023-01-02T11:06:29.043Z,2.20
2023-01-02T11:10:44.477Z,2.40
2023-01-02T11:15:13.788Z,2.22
2023-01-02T11:19:29.618Z,1.98
2023-01-02T11:23:44.840Z,2.13
2023-01-02T11:27:59.659Z,2.00
2023-01-02T11:32:23.183Z,1.55
2023-01-02T11:36:35.174Z,1.30
2023-01-02T11:40:54.970Z,1.60
2023-01-02T11:45:09.780Z,1.50
2023-01-02T11:49:24.983Z,1.65
2023-01-02T11:53:46.089Z,1.20
2023-01-02T11:58:05.871Z,1.33
2023-01-02T12:02:39.765Z,2.60
2023-01-02T12:06:59.416Z,1.80
2023-01-02T12:11:29.812Z,1.55
2023-01-02T12:15:50.537Z,2.22
2023-01-02T12:20:24.238Z,2.95
2023-01-02T12:24:58.278Z,3.33
2023-01-02T12:29:46.193Z,3.47
2023-01-02T12:34:29.421Z,2.67
2023-01-02T12:39:05.809Z,2.58
2023-01-02T12:43:45.147Z,3.35
2023-01-02T12:48:09.303Z,2.85
2023-01-02T12:52:42.210Z,3.00
2023-01-02T12:57:33.490Z,2.58
2023-01-02T13:02:05.917Z,2.70
2023-01-02T13:06:44.565Z,2.78
2023-01-02T13:11:01.537Z,3.38
2023-01-02T13:15:26.083Z,3.10
2023-01-02T13:19:43.681Z,3.13
2023-01-02T13:23:58.937Z,3.10
2023-01-02T13:28:13.244Z,3.28
2023-01-02T13:32:30.567Z,3.72
2023-01-02T13:36:46.960Z,3.30
2023-01-02T13:41:00.408Z,3.67
2023-01-02T13:45:31.671Z,4.55
2023-01-02T13:49:43.636Z,4.30
2023-01-02T13:53:55.655Z,5.43
2023-01-02T13:58:17.725Z,4.90
2023-01-02T14:02:29.644Z,6.32
2023-01-02T14:06:48.554Z,7.32
2023-01-02T14:11:09.540Z,7.40
2023-01-02T14:15:26.553Z,7.93
2023-01-02T14:19:38.406Z,7.60
2023-01-02T14:24:18.064Z,6.88
2023-01-02T14:28:31.321Z,6.97
2023-01-02T14:32:45.634Z,6.68
2023-01-02T14:37:00.392Z,7.95
2023-01-02T14:42:08.668Z,8.77
2023-01-02T14:46:25.697Z,8.38
2023-01-02T14:50:41.791Z,8.95
2023-01-02T14:55:00.528Z,8.13
2023-01-02T14:59:28.775Z,7.82
2023-01-02T15:03:40.348Z,7.10
2023-01-02T15:07:55.857Z,8.30
2023-01-02T15:12:43.042Z,7.47
2023-01-02T15:17:00.320Z,7.85
2023-01-02T15:21:13.837Z,6.30
2023-01-02T15:25:41.616Z,6.43
2023-01-02T15:29:55.693Z,7.10
2023-01-02T15:34:10.059Z,6.90
2023-01-02T15:38:22.940Z,6.20
2023-01-02T15:42:55.533Z,7.07
2023-01-02T15:47:10.929Z,6.53
2023-01-02T15:51:41.380Z,6.47
2023-01-02T15:55:53.854Z,6.40
2023-01-02T16:00:32.412Z,6.90
2023-01-02T16:04:44.146Z,6.40
2023-01-02T16:09:00.082Z,6.70
2023-01-02T16:13:40.718Z,6.70
2023-01-02T16:17:54.868Z,6.23
2023-01-02T16:22:26.767Z,6.87
2023-01-02T16:26:41.708Z,6.57
2023-01-02T16:31:16.466Z,5.73
2023-01-02T16:35:30.770Z,5.13
2023-01-02T16:39:49.092Z,5.70
2023-01-02T16:44:01.916Z,5.00
2023-01-02T16:48:17.121Z,5.00
2023-01-02T16:52:28.776Z,4.50
2023-01-02T16:56:41.340Z,4.93
2023-01-02T17:00:54.560Z,4.90
2023-01-02T17:05:39.874Z,5.43
2023-01-02T17:09:51.561Z,5.93
2023-01-02T17:14:03.209Z,6.27
2023-01-02T17:18:15.116Z,5.60
2023-01-02T17:22:27.903Z,5.70
2023-01-02T17:26:39.472Z,5.77
2023-01-02T17:30:51.396Z,4.87
2023-01-02T17:35:03.222Z,4.73
2023-01-02T17:39:15.891Z,4.10
2023-01-02T17:43:27.499Z,3.33
2023-01-02T17:48:00.677Z,4.10
2023-01-02T17:52:12.850Z,4.93
2023-01-02T17:56:25.231Z,4.03
2023-01-02T18:00:36.894Z,3.53
2023-01-02T18:04:54.787Z,2.90
2023-01-02T18:09:09.051Z,3.30
2023-01-02T18:13:20.731Z,2.83
2023-01-02T18:17:32.326Z,3.35
2023-01-02T18:21:45.087Z,3.07
2023-01-02T18:25:56.637Z,3.10
2023-01-02T18:30:18.461Z,3.43
2023-01-02T18:34:52.405Z,3.97
2023-01-02T18:39:23.395Z,4.10
2023-01-02T18:43:39.346Z,4.23
2023-01-02T18:47:56.948Z,4.33
2023-01-02T18:52:11.483Z,5.60
2023-01-02T18:56:25.582Z,5.23
2023-01-02T19:00:39.456Z,5.23
2023-01-02T19:04:51.646Z,5.63
2023-01-02T19:09:15.018Z,6.77
2023-01-02T19:13:35.500Z,6.10
2023-01-02T19:17:47.230Z,6.93
2023-01-02T19:21:59.964Z,7.40
2023-01-02T19:26:18.678Z,6.83
2023-01-02T19:30:38.042Z,7.77
2023-01-02T19:34:51.929Z,7.13
2023-01-02T19:39:22.320Z,7.23
2023-01-02T19:43:35.595Z,8.27
2023-01-02T19:47:48.099Z,7.40
2023-01-02T19:51:59.739Z,8.00
2023-01-02T19:56:11.337Z,9.27
2023-01-02T20:00:23.150Z,8.03
2023-01-02T20:04:35.181Z,10.30
2023-01-02T20:08:47.547Z,10.20
2023-01-02T20:12:59.182Z,8.87
2023-01-02T20:17:11.503Z,9.57
2023-01-02T20:21:25.531Z,10.50
2023-01-02T20:25:37.212Z,8.50
2023-01-02T20:29:49.506Z,7.43
2023-01-02T20:34:01.427Z,7.50
2023-01-02T20:38:13.095Z,9.63
2023-01-02T20:42:24.728Z,9.27
2023-01-02T20:46:37.061Z,8.17
2023-01-02T20:50:48.717Z,8.03
2023-01-02T20:55:00.611Z,8.87
2023-01-02T20:59:12.351Z,8.73
2023-01-02T21:03:24.254Z,8.80
2023-01-02T21:07:35.853Z,11.27
2023-01-02T21:11:47.483Z,15.00
2023-01-02T21:15:59.590Z,12.73
2023-01-02T21:20:11.247Z,11.50
2023-01-02T21:24:25.386Z,10.33
2023-01-02T21:28:38.197Z,9.93
2023-01-02T21:32:49.792Z,11.27
2023-01-02T21:37:01.455Z,10.57
2023-01-02T21:41:31.736Z,11.10
2023-01-02T21:45:43.487Z,10.60
2023-01-02T21:49:55.114Z,9.80
2023-01-02T21:54:06.642Z,8.53
2023-01-02T21:58:18.280Z,9.13
2023-01-02T22:02:36.924Z,8.63
2023-01-02T22:07:29.955Z,8.87
2023-01-02T22:11:40.505Z,8.73
2023-01-02T22:15:52.130Z,9.60
2023-01-02T22:20:04.147Z,8.83
2023-01-02T22:24:16.502Z,8.83
2023-01-02T22:28:28.121Z,9.30
2023-01-02T22:32:39.760Z,8.87
2023-01-02T22:36:51.606Z,9.83
2023-01-02T22:41:03.215Z,9.87
2023-01-02T22:45:20.541Z,9.67
2023-01-02T22:49:35.813Z,10.00
2023-01-02T22:53:47.376Z,9.27
2023-01-02T22:57:58.897Z,9.37
2023-01-02T23:02:15.083Z,9.83
2023-01-02T23:06:27.293Z,10.60
2023-01-02T23:10:39.074Z,11.00
2023-01-02T23:14:50.656Z,11.90
2023-01-02T23:19:14.255Z,10.07
2023-01-02T23:23:25.882Z,10.83
2023-01-02T23:27:37.496Z,11.60
2023-01-02T23:31:51.025Z,10.90
2023-01-02T23:36:02.690Z,11.53
2023-01-02T23:40:14.220Z,11.43
2023-01-02T23:44:26.494Z,12.03
2023-01-02T23:48:38.149Z,11.03
2023-01-02T23:52:49.819Z,10.50
2023-01-02T23:57:01.454Z,11.03
